createdAt,value
2022-10-24T00:01:38.327Z,10.96
2022-10-24T00:06:39.074Z,10.78
2022-10-24T00:09:08.830Z,10.76
2022-10-24T00:11:38.523Z,10.76
2022-10-24T00:14:06.416Z,10.76
2022-10-24T00:16:35.753Z,10.72
2022-10-24T00:19:03.655Z,10.86
2022-10-24T00:21:31.519Z,10.95
2022-10-24T00:23:59.377Z,10.88
2022-10-24T00:26:30.080Z,10.81
2022-10-24T00:28:57.969Z,10.80
2022-10-24T00:31:25.839Z,10.77
2022-10-24T00:33:53.720Z,10.78
2022-10-24T00:36:23.277Z,10.74
2022-10-24T00:38:52.446Z,10.74
2022-10-24T00:41:22.625Z,10.75
2022-10-24T00:43:51.872Z,10.83
2022-10-24T00:46:21.618Z,10.82
2022-10-24T00:48:53.199Z,10.66
2022-10-24T00:51:24.625Z,10.86
2022-10-24T00:53:55.314Z,10.77
2022-10-24T00:56:26.068Z,10.76
2022-10-24T00:58:57.908Z,10.72
2022-10-24T01:01:26.091Z,10.70
2022-10-24T01:03:53.937Z,10.66
2022-10-24T01:06:35.642Z,10.56
2022-10-24T01:09:14.600Z,10.40
2022-10-24T01:11:57.681Z,10.49
2022-10-24T01:14:51.711Z,10.37
2022-10-24T01:17:26.748Z,10.30
2022-10-24T01:20:18.638Z,10.42
2022-10-24T01:23:02.307Z,10.43
2022-10-24T01:25:42.224Z,10.33
2022-10-24T01:28:15.661Z,10.19
2022-10-24T01:30:48.617Z,10.23
2022-10-24T01:33:24.192Z,10.15
2022-10-24T01:35:56.931Z,10.05
2022-10-24T01:38:31.724Z,9.94
2022-10-24T01:41:04.712Z,10.04
2022-10-24T01:43:37.226Z,10.02
2022-10-24T01:46:10.993Z,10.14
2022-10-24T01:48:42.568Z,10.06
2022-10-24T01:51:12.891Z,10.03
2022-10-24T01:53:43.403Z,10.01
2022-10-24T01:56:11.575Z,10.05
2022-10-24T01:58:39.431Z,10.09
2022-10-24T02:01:13.449Z,10.07
2022-10-24T02:03:45.874Z,10.03
2022-10-24T02:06:20.328Z,9.96
2022-10-24T02:08:54.139Z,9.86
2022-10-24T02:11:22.039Z,9.81
2022-10-24T02:13:57.467Z,9.86
2022-10-24T02:16:27.073Z,10.01
2022-10-24T02:18:57.447Z,10.07
2022-10-24T02:21:32.922Z,9.97
2022-10-24T02:24:04.327Z,10.10
2022-10-24T02:26:35.660Z,10.04
2022-10-24T02:29:08.440Z,9.92
2022-10-24T02:31:42.460Z,9.99
2022-10-24T02:34:13.881Z,9.73
2022-10-24T02:36:45.152Z,10.08
2022-10-24T02:39:14.073Z,10.04
2022-10-24T02:41:44.669Z,10.02
2022-10-24T02:44:15.507Z,10.03
2022-10-24T02:46:47.484Z,9.92
2022-10-24T02:49:15.777Z,9.85
2022-10-24T02:51:45.964Z,9.90
2022-10-24T02:54:14.328Z,9.85
2022-10-24T02:56:47.087Z,9.86
2022-10-24T02:59:15.049Z,9.84
2022-10-24T03:01:44.347Z,9.88
2022-10-24T03:04:12.245Z,9.84
2022-10-24T03:06:40.079Z,9.83
2022-10-24T03:09:07.934Z,9.83
2022-10-24T03:11:35.960Z,9.81
2022-10-24T03:14:04.055Z,9.78
2022-10-24T03:16:32.009Z,9.72
2022-10-24T03:19:01.327Z,9.79
2022-10-24T03:21:29.163Z,9.68
2022-10-24T03:23:57.036Z,9.89
2022-10-24T03:26:24.919Z,9.78
2022-10-24T03:28:52.778Z,9.76
2022-10-24T03:31:20.656Z,9.65
2022-10-24T03:33:48.532Z,9.63
2022-10-24T03:36:17.955Z,9.70
2022-10-24T03:38:45.821Z,9.65
2022-10-24T03:41:13.668Z,9.59
2022-10-24T03:43:41.521Z,9.57
2022-10-24T03:46:09.475Z,9.59
2022-10-24T03:48:37.516Z,9.58
2022-10-24T03:51:05.452Z,9.56
2022-10-24T03:53:34.631Z,9.47
2022-10-24T03:56:02.562Z,9.46
2022-10-24T03:58:30.436Z,9.42
2022-10-24T04:00:59.409Z,9.38
2022-10-24T04:03:28.134Z,9.40
2022-10-24T04:05:56.088Z,9.39
2022-10-24T04:08:23.968Z,9.39
2022-10-24T04:10:53.209Z,9.34
2022-10-24T04:13:21.099Z,9.30
2022-10-24T04:15:48.996Z,9.29
2022-10-24T04:18:16.835Z,9.28
2022-10-24T04:20:44.677Z,9.25
2022-10-24T04:23:12.540Z,9.11
2022-10-24T04:25:41.003Z,9.15
2022-10-24T04:28:10.288Z,9.04
2022-10-24T04:30:38.189Z,9.02
2022-10-24T04:33:06.048Z,9.12
2022-10-24T04:35:33.897Z,9.08
2022-10-24T04:38:01.760Z,9.04
2022-10-24T04:40:29.600Z,8.98
2022-10-24T04:42:57.467Z,8.85
2022-10-24T04:45:26.641Z,8.96
2022-10-24T04:47:54.469Z,8.88
2022-10-24T04:50:22.292Z,8.97
2022-10-24T04:52:50.163Z,9.00
2022-10-24T04:55:18.803Z,8.94
2022-10-24T04:57:46.915Z,8.96
2022-10-24T05:00:15.658Z,9.06
2022-10-24T05:02:45.185Z,9.08
2022-10-24T05:05:13.433Z,9.14
2022-10-24T05:07:41.261Z,9.30
2022-10-24T05:10:09.923Z,9.49
2022-10-24T05:12:38.286Z,9.60
2022-10-24T05:15:07.660Z,9.78
2022-10-24T05:17:36.015Z,9.80
2022-10-24T05:20:06.143Z,9.94
2022-10-24T05:22:34.091Z,9.96
2022-10-24T05:25:01.980Z,9.98
2022-10-24T05:27:29.822Z,10.24
2022-10-24T05:29:57.827Z,10.47
2022-10-24T05:32:26.174Z,10.63
2022-10-24T05:34:54.152Z,10.75
2022-10-24T05:37:23.454Z,10.87
2022-10-24T05:39:51.356Z,11.09
2022-10-24T05:42:19.231Z,11.11
2022-10-24T05:44:47.107Z,11.63
2022-10-24T05:47:15.003Z,11.58
2022-10-24T05:49:42.988Z,11.88
2022-10-24T05:52:10.819Z,12.13
2022-10-24T05:54:55.208Z,12.27
2022-10-24T05:57:28.259Z,12.37
2022-10-24T05:59:56.087Z,12.39
2022-10-24T06:02:24.220Z,12.60
2022-10-24T06:04:52.137Z,12.65
2022-10-24T06:07:20.104Z,12.70
2022-10-24T06:09:49.322Z,12.74
2022-10-24T06:12:17.183Z,12.88
2022-10-24T06:14:45.762Z,13.00
2022-10-24T06:17:13.627Z,13.04
2022-10-24T06:19:41.662Z,13.25
2022-10-24T06:22:10.167Z,13.62
2022-10-24T06:24:39.297Z,13.93
2022-10-24T06:27:08.541Z,14.23
2022-10-24T06:29:36.820Z,14.45
2022-10-24T06:32:04.889Z,14.49
2022-10-24T06:34:32.889Z,14.88
2022-10-24T06:37:00.776Z,15.06
2022-10-24T06:39:28.700Z,15.53
2022-10-24T06:41:56.625Z,15.55
2022-10-24T06:44:25.931Z,15.75
2022-10-24T06:46:53.833Z,15.78
2022-10-24T06:49:21.699Z,15.72
2022-10-24T06:51:49.558Z,16.10
2022-10-24T06:54:17.529Z,16.15
2022-10-24T06:56:45.474Z,16.25
2022-10-24T06:59:17.363Z,16.48
2022-10-24T07:01:46.832Z,16.59
2022-10-24T07:04:14.844Z,16.67
2022-10-24T07:06:42.695Z,16.98
2022-10-24T07:09:15.148Z,16.91
2022-10-24T07:11:43.633Z,16.96
2022-10-24T07:14:11.886Z,16.97
2022-10-24T07:16:40.268Z,17.16
2022-10-24T07:19:09.903Z,17.22
2022-10-24T07:21:38.783Z,17.19
2022-10-24T07:24:07.794Z,17.28
2022-10-24T07:26:35.637Z,17.27
2022-10-24T07:29:04.610Z,17.36
2022-10-24T07:31:34.966Z,17.64
2022-10-24T07:34:04.823Z,18.21
2022-10-24T07:36:34.353Z,18.48
2022-10-24T07:39:02.324Z,18.36
2022-10-24T07:41:32.162Z,18.68
2022-10-24T07:44:02.240Z,18.31
2022-10-24T07:46:30.570Z,17.96
2022-10-24T07:48:58.723Z,18.41
2022-10-24T07:51:28.548Z,18.76
2022-10-24T07:53:58.297Z,19.18
2022-10-24T07:56:26.438Z,19.65
2022-10-24T07:58:55.126Z,19.51
2022-10-24T08:01:25.329Z,19.22
2022-10-24T08:03:53.344Z,19.08
2022-10-24T08:06:23.279Z,19.42
2022-10-24T08:08:51.400Z,19.19
2022-10-24T08:11:22.272Z,19.16
2022-10-24T08:13:51.214Z,19.56
2022-10-24T08:16:22.004Z,19.56
2022-10-24T08:18:52.095Z,19.92
2022-10-24T08:21:21.428Z,20.34
2022-10-24T08:23:52.164Z,20.40
2022-10-24T08:26:23.591Z,20.39
2022-10-24T08:28:51.883Z,20.49
2022-10-24T08:31:22.114Z,20.17
2022-10-24T08:33:52.999Z,20.55
2022-10-24T08:36:24.319Z,21.01
2022-10-24T08:38:52.216Z,20.81
2022-10-24T08:41:27.862Z,20.68
2022-10-24T08:43:57.460Z,20.74
2022-10-24T08:46:38.351Z,20.16
2022-10-24T08:49:15.205Z,20.94
2022-10-24T08:51:47.212Z,20.89
2022-10-24T08:54:19.574Z,20.96
2022-10-24T08:56:49.482Z,21.25
2022-10-24T08:59:17.431Z,21.02
2022-10-24T09:01:49.637Z,21.45
2022-10-24T09:04:21.111Z,21.60
2022-10-24T09:06:50.218Z,21.53
2022-10-24T09:09:24.385Z,22.20
2022-10-24T09:11:55.990Z,22.06
2022-10-24T09:14:27.428Z,22.01
2022-10-24T09:16:59.918Z,21.48
2022-10-24T09:19:30.397Z,21.65
2022-10-24T09:22:00.137Z,22.20
2022-10-24T09:24:34.492Z,22.01
2022-10-24T09:27:06.908Z,22.42
2022-10-24T09:29:35.141Z,22.65
2022-10-24T09:32:04.333Z,22.55
2022-10-24T09:34:32.233Z,22.23
2022-10-24T09:37:00.185Z,22.24
2022-10-24T09:39:31.299Z,23.25
2022-10-24T09:42:00.882Z,23.26
2022-10-24T09:44:34.464Z,23.27
2022-10-24T09:47:04.528Z,23.31
2022-10-24T09:49:36.568Z,23.84
2022-10-24T09:52:09.788Z,24.05
2022-10-24T09:54:38.050Z,24.01
2022-10-24T09:57:13.453Z,23.58
2022-10-24T09:59:45.189Z,23.88
2022-10-24T10:02:21.009Z,23.66
2022-10-24T10:04:50.234Z,23.75
2022-10-24T10:07:20.386Z,23.47
2022-10-24T10:09:56.520Z,23.54
2022-10-24T10:12:30.401Z,24.16
2022-10-24T10:15:00.599Z,24.23
2022-10-24T10:17:31.336Z,24.52
2022-10-24T10:19:59.834Z,24.80
2022-10-24T10:22:30.229Z,24.32
2022-10-24T10:24:59.216Z,24.29
2022-10-24T10:27:32.103Z,24.34
2022-10-24T10:30:22.101Z,24.53
2022-10-24T10:33:12.666Z,24.65
2022-10-24T10:35:49.530Z,24.36
2022-10-24T10:38:37.316Z,24.67
2022-10-24T10:41:08.940Z,24.95
2022-10-24T10:43:44.228Z,25.02
2022-10-24T10:46:24.123Z,25.23
2022-10-24T10:49:03.966Z,24.75
2022-10-24T10:51:43.529Z,24.88
2022-10-24T10:54:25.161Z,25.16
2022-10-24T10:56:55.628Z,25.28
2022-10-24T10:59:40.247Z,25.69
2022-10-24T11:02:28.212Z,25.30
2022-10-24T11:05:05.551Z,26.15
2022-10-24T11:07:41.958Z,26.05
2022-10-24T11:10:14.030Z,25.66
2022-10-24T11:12:44.843Z,26.12
2022-10-24T11:15:21.374Z,26.13
2022-10-24T11:17:56.953Z,26.24
2022-10-24T11:20:28.984Z,25.48
2022-10-24T11:23:01.587Z,25.55
2022-10-24T11:25:37.420Z,25.66
2022-10-24T11:28:13.560Z,25.75
2022-10-24T11:30:48.366Z,26.01
2022-10-24T11:33:21.247Z,26.12
2022-10-24T11:36:08.341Z,26.38
2022-10-24T11:38:41.989Z,26.22
2022-10-24T11:41:48.144Z,26.07
2022-10-24T11:44:31.520Z,25.86
2022-10-24T11:47:08.607Z,25.97
2022-10-24T11:49:43.131Z,25.93
2022-10-24T11:52:18.180Z,26.56
2022-10-24T11:54:52.766Z,26.78
2022-10-24T11:57:25.006Z,26.79
2022-10-24T11:59:54.352Z,26.49
2022-10-24T12:03:18.980Z,26.46
2022-10-24T12:06:01.526Z,26.41
2022-10-24T12:08:48.743Z,26.74
2022-10-24T12:11:40.328Z,26.63
2022-10-24T12:14:27.061Z,27.13
2022-10-24T12:17:15.909Z,26.56
2022-10-24T12:19:46.644Z,26.67
2022-10-24T12:22:21.939Z,26.86
2022-10-24T12:24:50.509Z,26.73
2022-10-24T12:27:28.295Z,26.20
2022-10-24T12:30:05.954Z,26.35
2022-10-24T12:32:40.608Z,26.01
2022-10-24T12:35:44.401Z,26.50
2022-10-24T12:38:20.262Z,26.51
2022-10-24T12:40:52.189Z,26.73
2022-10-24T12:43:44.319Z,26.80
2022-10-24T12:46:53.663Z,26.79
2022-10-24T12:49:28.347Z,26.90
2022-10-24T12:51:57.128Z,26.65
2022-10-24T12:54:43.044Z,26.87
2022-10-24T12:57:23.896Z,26.98
2022-10-24T12:59:53.808Z,26.37
2022-10-24T13:02:48.319Z,26.73
2022-10-24T13:05:34.963Z,26.49
2022-10-24T13:08:19.094Z,26.42
2022-10-24T13:10:59.060Z,26.46
2022-10-24T13:14:06.533Z,26.67
2022-10-24T13:16:45.277Z,26.41
2022-10-24T13:19:18.511Z,26.51
2022-10-24T13:21:49.247Z,26.52
2022-10-24T13:24:25.800Z,26.34
2022-10-24T13:27:38.391Z,26.44
2022-10-24T13:30:34.699Z,26.40
2022-10-24T13:33:41.031Z,26.55
2022-10-24T13:36:16.653Z,26.41
2022-10-24T13:38:49.555Z,26.17
2022-10-24T13:41:24.850Z,25.87
2022-10-24T13:43:56.165Z,25.73
2022-10-24T13:46:34.218Z,25.54
2022-10-24T13:49:04.231Z,25.18
2022-10-24T13:51:38.136Z,25.44
2022-10-24T13:54:12.277Z,25.50
2022-10-24T13:56:44.342Z,25.51
2022-10-24T13:59:30.474Z,25.37
2022-10-24T14:02:03.091Z,25.08
2022-10-24T14:04:32.000Z,24.80
2022-10-24T14:07:03.667Z,25.13
2022-10-24T14:09:32.157Z,24.41
2022-10-24T14:12:00.051Z,25.04
2022-10-24T14:14:31.326Z,25.03
2022-10-24T14:17:23.315Z,24.97
2022-10-24T14:19:55.552Z,24.98
2022-10-24T14:22:26.175Z,24.83
2022-10-24T14:24:54.080Z,24.92
2022-10-24T14:27:22.368Z,24.88
2022-10-24T14:30:01.842Z,24.77
2022-10-24T14:32:32.326Z,24.68
2022-10-24T14:37:37.612Z,24.61
2022-10-24T14:40:07.160Z,24.44
2022-10-24T14:42:35.710Z,24.40
2022-10-24T14:45:03.615Z,24.40
2022-10-24T14:47:38.921Z,24.20
2022-10-24T14:50:37.988Z,24.10
2022-10-24T14:53:06.568Z,23.92
2022-10-24T14:55:34.782Z,23.66
2022-10-24T14:58:02.642Z,23.77
2022-10-24T15:00:39.361Z,23.73
2022-10-24T15:03:11.096Z,23.59
2022-10-24T15:05:41.487Z,23.51
2022-10-24T15:08:28.889Z,23.43
2022-10-24T15:11:15.164Z,23.24
2022-10-24T15:13:59.974Z,23.12
2022-10-24T15:16:37.740Z,23.09
2022-10-24T15:19:13.696Z,22.99
2022-10-24T15:21:47.309Z,22.83
2022-10-24T15:24:22.917Z,22.79
2022-10-24T15:26:50.879Z,22.71
2022-10-24T15:29:21.995Z,22.55
2022-10-24T15:31:51.829Z,22.41
2022-10-24T15:34:22.822Z,22.32
2022-10-24T15:36:53.125Z,22.23
2022-10-24T15:39:24.403Z,22.16
2022-10-24T15:41:52.853Z,22.02
2022-10-24T15:44:24.970Z,22.03
2022-10-24T15:46:52.796Z,21.96
2022-10-24T15:49:22.307Z,21.79
2022-10-24T15:51:51.427Z,21.59
2022-10-24T15:54:21.255Z,21.49
2022-10-24T15:56:49.314Z,21.36
2022-10-24T15:59:18.543Z,21.18
2022-10-24T16:01:50.750Z,21.11
2022-10-24T16:04:20.170Z,20.58
2022-10-24T16:06:49.683Z,20.94
2022-10-24T16:09:20.257Z,20.59
2022-10-24T16:11:48.604Z,20.82
2022-10-24T16:14:17.935Z,20.63
2022-10-24T16:16:45.826Z,20.53
2022-10-24T16:19:13.717Z,20.48
2022-10-24T16:21:42.631Z,20.41
2022-10-24T16:24:14.057Z,20.32
2022-10-24T16:26:42.209Z,20.27
2022-10-24T16:29:10.036Z,20.26
2022-10-24T16:31:38.375Z,20.18
2022-10-24T16:34:07.377Z,20.13
2022-10-24T16:36:35.317Z,20.07
2022-10-24T16:39:03.634Z,19.73
2022-10-24T16:41:33.002Z,19.62
2022-10-24T16:44:01.037Z,19.54
2022-10-24T16:46:29.323Z,19.53
2022-10-24T16:48:58.064Z,19.51
2022-10-24T16:51:32.013Z,19.37
2022-10-24T16:54:00.376Z,19.45
2022-10-24T16:56:28.349Z,19.34
2022-10-24T16:58:57.636Z,19.22
2022-10-24T17:01:27.547Z,19.03
2022-10-24T17:03:55.844Z,18.77
2022-10-24T17:06:24.005Z,18.75
2022-10-24T17:08:52.603Z,18.79
2022-10-24T17:11:43.683Z,18.88
2022-10-24T17:14:10.371Z,18.89
2022-10-24T17:16:38.236Z,18.82
2022-10-24T17:19:15.701Z,18.69
2022-10-24T17:21:46.780Z,18.62
2022-10-24T17:24:16.219Z,18.63
2022-10-24T17:26:44.294Z,18.57
2022-10-24T17:29:20.274Z,18.59
2022-10-24T17:31:48.505Z,18.59
2022-10-24T17:34:16.635Z,18.50
2022-10-24T17:36:48.406Z,18.14
2022-10-24T17:39:22.259Z,18.30
2022-10-24T17:41:53.786Z,18.32
2022-10-24T17:44:23.716Z,18.23
2022-10-24T17:46:55.905Z,18.12
2022-10-24T17:49:26.682Z,17.78
2022-10-24T17:51:54.588Z,17.90
2022-10-24T17:54:22.901Z,17.64
2022-10-24T17:56:50.958Z,17.35
2022-10-24T17:59:18.843Z,17.59
2022-10-24T18:01:48.229Z,17.56
2022-10-24T18:04:16.617Z,17.52
2022-10-24T18:06:44.786Z,17.56
2022-10-24T18:09:13.278Z,17.58
2022-10-24T18:11:41.220Z,17.53
2022-10-24T18:14:09.166Z,17.59
2022-10-24T18:16:39.438Z,17.56
2022-10-24T18:19:08.707Z,17.42
2022-10-24T18:21:36.635Z,17.26
2022-10-24T18:24:07.385Z,16.17
2022-10-24T18:26:35.424Z,17.05
2022-10-24T18:29:03.271Z,17.00
2022-10-24T18:31:33.977Z,16.96
2022-10-24T18:34:06.051Z,16.96
2022-10-24T18:36:37.487Z,16.84
2022-10-24T18:39:06.081Z,16.60
2022-10-24T18:41:44.964Z,16.38
2022-10-24T18:44:24.237Z,16.37
2022-10-24T18:46:53.453Z,16.34
2022-10-24T18:49:22.004Z,16.43
2022-10-24T18:52:02.759Z,16.47
2022-10-24T18:54:31.408Z,16.46
2022-10-24T18:57:00.792Z,16.44
2022-10-24T18:59:30.861Z,16.37
2022-10-24T19:02:17.076Z,16.15
2022-10-24T19:04:49.236Z,16.07
2022-10-24T19:07:19.563Z,16.04
2022-10-24T19:09:47.610Z,15.73
2022-10-24T19:12:17.729Z,15.62
2022-10-24T19:14:47.206Z,15.46
2022-10-24T19:17:16.278Z,15.76
2022-10-24T19:19:44.335Z,15.77
2022-10-24T19:22:12.201Z,15.76
2022-10-24T19:24:41.477Z,15.66
2022-10-24T19:27:09.531Z,15.70
2022-10-24T19:29:37.531Z,15.66
2022-10-24T19:32:05.668Z,15.62
2022-10-24T19:34:34.836Z,15.47
2022-10-24T19:37:03.781Z,15.49
2022-10-24T19:39:33.895Z,15.58
2022-10-24T19:42:03.452Z,15.37
2022-10-24T19:44:31.272Z,15.60
2022-10-24T19:46:59.106Z,15.46
2022-10-24T19:49:26.949Z,15.43
2022-10-24T19:51:56.836Z,15.53
2022-10-24T19:54:24.721Z,15.52
2022-10-24T19:56:54.406Z,15.44
2022-10-24T19:59:23.680Z,15.33
2022-10-24T20:01:51.608Z,15.30
2022-10-24T20:04:19.656Z,15.32
2022-10-24T20:06:48.028Z,15.35
2022-10-24T20:09:16.030Z,15.12
2022-10-24T20:11:43.873Z,14.80
2022-10-24T20:14:11.771Z,15.01
2022-10-24T20:16:41.038Z,14.97
2022-10-24T20:19:08.883Z,14.93
2022-10-24T20:21:37.626Z,14.95
2022-10-24T20:24:06.189Z,14.89
2022-10-24T20:26:34.325Z,14.93
2022-10-24T20:29:02.349Z,14.92
2022-10-24T20:31:32.376Z,14.81
2022-10-24T20:34:07.996Z,14.77
2022-10-24T20:36:37.076Z,14.79
2022-10-24T20:39:05.537Z,14.75
2022-10-24T20:41:33.472Z,14.71
2022-10-24T20:44:02.496Z,14.48
2022-10-24T20:46:30.389Z,14.62
2022-10-24T20:48:58.768Z,14.59
2022-10-24T20:51:28.262Z,14.63
2022-10-24T20:53:56.126Z,14.68
2022-10-24T20:56:26.764Z,14.55
2022-10-24T20:58:56.331Z,14.48
2022-10-24T21:01:25.717Z,13.33
2022-10-24T21:03:54.844Z,14.15
2022-10-24T21:06:24.965Z,14.33
2022-10-24T21:08:56.413Z,14.50
2022-10-24T21:11:27.344Z,14.37
2022-10-24T21:13:57.125Z,14.27
2022-10-24T21:16:26.050Z,14.24
2022-10-24T21:18:54.424Z,14.20
2022-10-24T21:21:23.686Z,14.07
2022-10-24T21:23:52.832Z,13.87
2022-10-24T21:26:22.783Z,13.85
2022-10-24T21:28:53.999Z,13.87
2022-10-24T21:31:27.311Z,13.81
2022-10-24T21:33:55.818Z,13.77
2022-10-24T21:36:24.540Z,13.84
2022-10-24T21:38:54.093Z,13.40
2022-10-24T21:41:24.049Z,13.85
2022-10-24T21:43:53.010Z,13.71
2022-10-24T21:46:22.483Z,13.68
2022-10-24T21:48:52.143Z,13.62
2022-10-24T21:51:21.834Z,13.60
2022-10-24T21:53:51.387Z,13.44
2022-10-24T21:56:21.172Z,13.50
2022-10-24T21:58:52.018Z,13.49
2022-10-24T22:01:21.781Z,13.39
2022-10-24T22:03:49.695Z,13.38
2022-10-24T22:06:19.271Z,13.00
2022-10-24T22:08:48.568Z,13.31
2022-10-24T22:11:18.328Z,13.21
2022-10-24T22:13:46.592Z,13.22
2022-10-24T22:16:17.775Z,13.21
2022-10-24T22:18:46.127Z,13.25
2022-10-24T22:21:23.687Z,13.31
2022-10-24T22:23:51.636Z,13.31
2022-10-24T22:26:19.660Z,13.43
2022-10-24T22:28:47.537Z,13.29
2022-10-24T22:31:17.792Z,13.32
2022-10-24T22:33:46.261Z,13.12
2022-10-24T22:36:20.971Z,13.14
2022-10-24T22:38:53.124Z,13.09
2022-10-24T22:41:21.700Z,13.11
2022-10-24T22:43:50.278Z,13.14
2022-10-24T22:46:33.906Z,13.19
2022-10-24T22:51:42.979Z,13.11
2022-10-24T22:54:17.809Z,13.09
2022-10-24T22:56:46.279Z,13.20
2022-10-24T22:59:14.606Z,13.25
2022-10-24T23:01:57.924Z,13.39
2022-10-24T23:04:35.063Z,13.34
2022-10-24T23:07:11.394Z,13.25
2022-10-24T23:09:39.277Z,13.15
2022-10-24T23:12:13.602Z,13.21
2022-10-24T23:14:42.182Z,13.15
2022-10-24T23:17:13.929Z,13.03
2022-10-24T23:19:46.865Z,13.03
2022-10-24T23:22:23.080Z,13.03
2022-10-24T23:24:52.118Z,12.93
2022-10-24T23:27:44.970Z,12.83
2022-10-24T23:30:19.082Z,12.84
2022-10-24T23:32:49.931Z,12.75
2022-10-24T23:35:20.323Z,12.62
2022-10-24T23:37:50.038Z,12.58
2022-10-24T23:40:29.997Z,12.49
2022-10-24T23:42:58.921Z,12.23
2022-10-24T23:45:28.491Z,11.28
2022-10-24T23:48:08.703Z,12.08
2022-10-24T23:50:45.873Z,11.97
2022-10-24T23:53:24.911Z,12.05
2022-10-24T23:55:53.437Z,12.02
2022-10-24T23:58:21.477Z,12.04
